Jussara, Brazil
Current Conditions -  °F | °C
As of 6:00 PM on Friday 28 Nov 2014 (Local Time) from SBPL Reporting Station
Broken Clouds Broken Clouds  
Wind Chill: 93°   Ceiling: 7000
Heat Index: 94°   Visibility: 6mi
Dew Point: 63°   Wind: 8mph
Humidity: 36%   Direction: 170°S
Pressure: 29.85"   Gusts: NA
Location:  11.05°S, 41.97°W
Report Text: SBPL 282100Z 17007KT 9999 FEW020 BKN070 34/17 Q1011
Loading
Personal Weather Stations






























Interactive Weather Map New forecast layout! Learn more

10-Day Weather Forecast

Advertisements
Track Severe Weather on mobile